Time;durP1;ratioP1;P1;durP2;ratioP2;P2;SDS_P1;SDS_P2;PMS_P1;PMS_P2;Temp;Humidity;BMP_temperature;BMP_pressure;BME280_temperature;BME280_humidity;BME280_pressure;Samples;Min_cycle;Max_cycle;Signal;HPM_P1;HPM_P2
2022/04/29 00:02:10;;;;;;;;;;;13.90;99.90;;;;;;5055605;28;19908;-80
2022/04/29 00:04:36;;;;;;;;;;;13.70;99.90;;;;;;5073578;28;19918;-81
2022/04/29 00:07:02;;;;;;;;;;;13.90;99.90;;;;;;5073561;28;19958;-81
2022/04/29 00:09:28;;;;;;;;;;;13.70;99.90;;;;;;5073551;28;19904;-80
2022/04/29 00:11:54;;;;;;;;;;;13.50;99.90;;;;;;5073534;28;19908;-80
2022/04/29 00:14:20;;;;;;;;;;;13.50;99.90;;;;;;5073700;28;20364;-80
2022/04/29 00:16:46;;;;;;;;;;;13.50;99.90;;;;;;5073555;28;19919;-80
2022/04/29 00:19:11;;;;;;;;;;;13.40;99.90;;;;;;5073663;28;20054;-81
2022/04/29 00:21:37;;;;;;;;;;;13.40;99.90;;;;;;5073473;28;19904;-81
2022/04/29 00:24:02;;;;;;;;;;;13.40;99.90;;;;;;5073475;28;19911;-80
2022/04/29 00:26:28;;;;;;;;;;;13.50;99.90;;;;;;5073419;28;19905;-81
2022/04/29 00:28:54;;;;;;;;;;;13.60;99.90;;;;;;5073410;28;20284;-81
2022/04/29 00:31:19;;;;;;;;;;;13.60;99.90;;;;;;5073389;28;19947;-79
2022/04/29 00:33:45;;;;;;;;;;;13.60;99.90;;;;;;5073543;28;19908;-78
2022/04/29 00:36:10;;;;;;;;;;;13.70;99.90;;;;;;5073234;28;20372;-80
2022/04/29 00:38:36;;;;;;;;;;;13.70;99.90;;;;;;5073240;28;19908;-81
2022/04/29 00:41:02;;;;;;;;;;;13.70;99.90;;;;;;5073225;28;19904;-80
2022/04/29 00:43:27;;;;;;;;;;;13.70;99.90;;;;;;5073637;28;19904;-81
2022/04/29 00:45:53;;;;;;;;;;;13.80;99.90;;;;;;5073230;28;20429;-79
2022/04/29 00:48:19;;;;;;;;;;;13.70;99.90;;;;;;5073191;28;20280;-79
2022/04/29 00:50:44;;;;;;;;;;;13.70;99.90;;;;;;5073252;28;19904;-78
2022/04/29 00:53:12;;;;;;;;;;;13.60;99.90;;;;;;5055133;28;20376;-80
2022/04/29 00:55:38;;;;;;;;;;;13.70;99.90;;;;;;5055216;28;19905;-79
2022/04/29 00:58:06;;;;;;;;;;;13.80;99.90;;;;;;5073053;28;19913;-80
2022/04/29 01:00:31;;;;;;;;;;;13.80;99.90;;;;;;5073211;28;20309;-81
2022/04/29 01:02:59;;;;;;;;;;;13.80;99.90;;;;;;5073063;28;19930;-79
2022/04/29 01:05:25;;;;;;;;;;;13.70;99.90;;;;;;5073000;28;20060;-80
2022/04/29 01:07:51;;;;;;;;;;;13.70;99.90;;;;;;5073523;28;20384;-80
2022/04/29 01:10:20;;;;;;;;;;;13.70;99.90;;;;;;5074081;28;19930;-79
2022/04/29 01:12:48;;;;;;;;;;;13.60;99.90;;;;;;5076585;28;19948;-80
2022/04/29 01:15:15;;;;;;;;;;;13.70;99.90;;;;;;5076562;28;20272;-79
2022/04/29 01:17:41;;;;;;;;;;;13.80;99.90;;;;;;5076401;28;20315;-78
2022/04/29 01:20:08;;;;;;;;;;;13.80;99.90;;;;;;5076695;28;19904;-79
2022/04/29 01:22:33;;;;;;;;;;;13.70;99.90;;;;;;5076395;28;19905;-81
2022/04/29 01:24:59;;;;;;;;;;;13.60;99.90;;;;;;5076424;28;19911;-79
2022/04/29 01:27:25;;;;;;;;;;;13.60;99.90;;;;;;5076638;28;19904;-78
2022/04/29 01:29:56;;;;;;;;;;;13.60;99.90;;;;;;5076274;28;19938;-82
2022/04/29 01:32:23;;;;;;;;;;;13.30;99.90;;;;;;5076548;28;19912;-82
2022/04/29 01:34:48;;;;;;;;;;;13.20;99.90;;;;;;5076253;28;19904;-81
2022/04/29 01:37:14;;;;;;;;;;;13.10;99.90;;;;;;5076005;28;20015;-80
2022/04/29 01:39:39;;;;;;;;;;;13.00;99.90;;;;;;5076119;28;19908;-79
2022/04/29 01:42:05;;;;;;;;;;;12.90;99.90;;;;;;5076102;28;20268;-81
2022/04/29 01:44:30;;;;;;;;;;;12.90;99.90;;;;;;5076307;28;19911;-82
2022/04/29 01:46:56;;;;;;;;;;;13.00;99.90;;;;;;5076333;28;19912;-80
2022/04/29 01:49:22;;;;;;;;;;;13.00;99.90;;;;;;5076085;28;20323;-79
2022/04/29 01:51:47;;;;;;;;;;;13.00;99.90;;;;;;5057917;28;19904;-80
2022/04/29 01:54:13;;;;;;;;;;;12.80;99.90;;;;;;5075861;28;19904;-80
2022/04/29 01:56:40;;;;;;;;;;;12.80;99.90;;;;;;5075828;28;20288;-82
2022/04/29 01:59:06;;;;;;;;;;;12.90;99.90;;;;;;5075999;28;19908;-80
2022/04/29 02:01:32;;;;;;;;;;;12.80;99.90;;;;;;5075732;28;19971;-79
2022/04/29 02:04:01;;;;;;;;;;;12.80;99.90;;;;;;5057747;28;19983;-78
2022/04/29 02:06:27;;;;;;;;;;;12.90;99.90;;;;;;5075895;28;19904;-79
2022/04/29 02:08:53;;;;;;;;;;;12.70;99.90;;;;;;5075570;28;20042;-81
2022/04/29 02:11:19;;;;;;;;;;;12.60;99.90;;;;;;5075597;28;19904;-79
2022/04/29 02:13:45;;;;;;;;;;;12.50;99.90;;;;;;5075517;28;19908;-80
2022/04/29 02:16:11;;;;;;;;;;;12.40;99.90;;;;;;5075497;28;20284;-80
2022/04/29 02:18:37;;;;;;;;;;;12.50;99.90;;;;;;5057365;28;19908;-80
2022/04/29 02:21:02;;;;;;;;;;;12.30;99.90;;;;;;5075488;28;19912;-80
2022/04/29 02:23:29;;;;;;;;;;;12.20;99.90;;;;;;5074834;28;19987;-79
2022/04/29 02:25:55;;;;;;;;;;;12.20;99.90;;;;;;5075253;28;20007;-80
2022/04/29 02:28:21;;;;;;;;;;;12.30;99.90;;;;;;5075227;28;19905;-81
2022/04/29 02:30:47;;;;;;;;;;;12.30;99.90;;;;;;5075335;28;19904;-79
2022/04/29 02:33:12;;;;;;;;;;;12.40;99.90;;;;;;5075129;28;19904;-82
2022/04/29 02:35:38;;;;;;;;;;;12.40;99.90;;;;;;5075134;28;19928;-79
2022/04/29 02:38:04;;;;;;;;;;;12.30;99.90;;;;;;5056649;28;19999;-78
2022/04/29 02:40:29;;;;;;;;;;;12.30;99.90;;;;;;5057024;28;19905;-80
2022/04/29 02:42:55;;;;;;;;;;;12.50;99.90;;;;;;5075278;28;19927;-81
2022/04/29 02:45:20;;;;;;;;;;;12.50;99.90;;;;;;5074890;28;19904;-79
2022/04/29 02:47:46;;;;;;;;;;;12.50;99.90;;;;;;5074790;28;19905;-80
2022/04/29 02:50:11;;;;;;;;;;;12.40;99.90;;;;;;5074962;28;20041;-81
2022/04/29 02:52:37;;;;;;;;;;;12.50;99.90;;;;;;5074723;28;19971;-80
2022/04/29 02:55:03;;;;;;;;;;;12.50;99.90;;;;;;5074761;28;19905;-81
2022/04/29 02:57:28;;;;;;;;;;;12.50;99.90;;;;;;5074618;28;20003;-79
2022/04/29 02:59:55;;;;;;;;;;;12.40;99.90;;;;;;5074530;28;20426;-79
2022/04/29 03:02:20;;;;;;;;;;;12.30;99.90;;;;;;5056609;28;19908;-80
2022/04/29 03:04:46;;;;;;;;;;;12.20;99.90;;;;;;5056550;28;20261;-79
2022/04/29 03:07:11;;;;;;;;;;;12.10;99.90;;;;;;5074428;28;19904;-80
2022/04/29 03:09:37;;;;;;;;;;;12.10;99.90;;;;;;5074480;28;19904;-81
2022/04/29 03:12:03;;;;;;;;;;;12.20;99.90;;;;;;5074262;28;20280;-80
2022/04/29 03:14:28;;;;;;;;;;;12.30;99.90;;;;;;5074476;28;19912;-80
2022/04/29 03:16:54;;;;;;;;;;;12.40;99.90;;;;;;5074370;28;19915;-80
2022/04/29 03:19:19;;;;;;;;;;;12.50;99.90;;;;;;5074253;28;19961;-81
2022/04/29 03:21:45;;;;;;;;;;;12.50;99.90;;;;;;5074135;28;19905;-79
2022/04/29 03:24:11;;;;;;;;;;;12.60;99.90;;;;;;5074329;28;19909;-79
2022/04/29 03:26:37;;;;;;;;;;;12.60;99.90;;;;;;5074100;28;20349;-81
2022/04/29 03:29:03;;;;;;;;;;;12.60;99.90;;;;;;5056140;28;20410;-80
2022/04/29 03:31:28;;;;;;;;;;;12.50;99.90;;;;;;5056138;28;19905;-79
2022/04/29 03:33:54;;;;;;;;;;;12.50;99.90;;;;;;5073094;28;19935;-79
2022/04/29 03:36:19;;;;;;;;;;;12.40;99.90;;;;;;5073735;28;19950;-79
2022/04/29 03:38:45;;;;;;;;;;;12.40;99.90;;;;;;5074193;28;19962;-80
2022/04/29 03:41:12;;;;;;;;;;;12.50;99.90;;;;;;5074206;28;19904;-80
2022/04/29 03:43:37;;;;;;;;;;;12.50;99.90;;;;;;5055949;28;19951;-80
2022/04/29 03:46:05;;;;;;;;;;;12.40;99.90;;;;;;5073885;28;19938;-78
2022/04/29 03:49:35;;;;;;;;;;;12.20;99.90;;;;;;5073793;28;20380;-80
2022/04/29 03:51:16;;;;;;;;;;;12.00;99.90;;;;;;5073081;28;19908;-82
2022/04/29 03:53:41;;;;;;;;;;;12.10;99.90;;;;;;5073973;28;19910;-81
2022/04/29 03:56:07;;;;;;;;;;;12.20;99.90;;;;;;5073788;28;19905;-79
2022/04/29 03:58:33;;;;;;;;;;;12.20;99.90;;;;;;5055617;28;19908;-81
2022/04/29 04:00:58;;;;;;;;;;;12.20;99.90;;;;;;5055715;28;19905;-80
2022/04/29 04:03:24;;;;;;;;;;;12.10;99.90;;;;;;5055714;28;19908;-79
2022/04/29 04:08:34;;;;;;;;;;;12.10;99.90;;;;;;5073589;28;19911;-80
2022/04/29 04:10:59;;;;;;;;;;;12.10;99.90;;;;;;5073523;28;19904;-79
2022/04/29 04:13:25;;;;;;;;;;;12.10;99.90;;;;;;5073475;28;19911;-81
2022/04/29 04:15:51;;;;;;;;;;;12.30;99.90;;;;;;5055510;28;19999;-81
2022/04/29 04:18:16;;;;;;;;;;;12.20;99.90;;;;;;5073635;28;20375;-81
2022/04/29 04:20:42;;;;;;;;;;;12.10;99.90;;;;;;5073485;28;20407;-82
2022/04/29 04:23:08;;;;;;;;;;;12.20;99.90;;;;;;5073539;28;19999;-79
2022/04/29 04:25:34;;;;;;;;;;;12.20;99.90;;;;;;5073414;28;19975;-81
2022/04/29 04:27:59;;;;;;;;;;;12.20;99.90;;;;;;5055442;28;20369;-80
2022/04/29 04:30:25;;;;;;;;;;;12.30;99.90;;;;;;5055393;28;19991;-80
2022/04/29 04:32:51;;;;;;;;;;;12.40;99.90;;;;;;5073388;28;19908;-78
2022/04/29 04:35:17;;;;;;;;;;;12.50;99.90;;;;;;5073327;28;19947;-80
2022/04/29 04:37:43;;;;;;;;;;;12.60;99.90;;;;;;5073052;28;19916;-80
2022/04/29 04:40:09;;;;;;;;;;;12.60;99.90;;;;;;5073321;28;19904;-80
2022/04/29 04:42:45;;;;;;;;;;;12.60;99.90;;;;;;5073294;28;19904;-78
2022/04/29 04:45:10;;;;;;;;;;;12.60;99.90;;;;;;5074295;28;20284;-80
2022/04/29 04:47:36;;;;;;;;;;;12.50;99.90;;;;;;5077128;28;19911;-80
2022/04/29 04:50:01;;;;;;;;;;;12.60;99.90;;;;;;5077360;28;19904;-81
2022/04/29 04:52:27;;;;;;;;;;;12.50;99.90;;;;;;5077208;28;20373;-80
2022/04/29 04:54:53;;;;;;;;;;;12.50;99.90;;;;;;5058979;28;19904;-80
2022/04/29 04:57:19;;;;;;;;;;;12.60;99.90;;;;;;5058895;28;20254;-80
2022/04/29 04:59:45;;;;;;;;;;;12.60;99.90;;;;;;5077213;28;19908;-81
2022/04/29 05:02:10;;;;;;;;;;;12.70;99.90;;;;;;5077170;28;20372;-79
2022/04/29 05:04:36;;;;;;;;;;;12.90;99.90;;;;;;5076716;28;19973;-80
2022/04/29 05:07:03;;;;;;;;;;;12.70;99.90;;;;;;5076795;28;19911;-79
2022/04/29 05:09:28;;;;;;;;;;;12.70;99.90;;;;;;5076680;28;19905;-78
2022/04/29 05:11:54;;;;;;;;;;;12.80;99.90;;;;;;5076571;28;19908;-80
2022/04/29 05:14:19;;;;;;;;;;;12.80;99.90;;;;;;5058670;28;20007;-80
2022/04/29 05:16:45;;;;;;;;;;;12.90;99.90;;;;;;5076761;28;20280;-82
2022/04/29 05:19:11;;;;;;;;;;;12.80;99.90;;;;;;5076502;28;20372;-82
2022/04/29 05:21:36;;;;;;;;;;;12.80;99.90;;;;;;5076804;28;19912;-81
2022/04/29 05:24:02;;;;;;;;;;;12.60;99.90;;;;;;5076749;28;20340;-81
2022/04/29 05:26:27;;;;;;;;;;;12.60;99.90;;;;;;5076502;28;20395;-81
2022/04/29 05:28:53;;;;;;;;;;;12.70;99.90;;;;;;5076347;28;19911;-79
2022/04/29 05:31:19;;;;;;;;;;;12.90;99.90;;;;;;5076527;28;19943;-81
2022/04/29 05:33:45;;;;;;;;;;;12.80;99.90;;;;;;5076200;28;19908;-79
2022/04/29 05:36:11;;;;;;;;;;;12.80;99.90;;;;;;5076194;28;19923;-80
2022/04/29 05:44:06;;;;;;;;;;;13.00;99.90;;;;;;5075856;28;19911;-81
2022/04/29 05:46:32;;;;;;;;;;;13.10;99.90;;;;;;5058047;28;19987;-79
2022/04/29 05:48:58;;;;;;;;;;;13.00;99.90;;;;;;5075988;28;19944;-81
2022/04/29 05:51:23;;;;;;;;;;;13.10;99.90;;;;;;5057859;28;19916;-80
2022/04/29 05:53:49;;;;;;;;;;;13.10;99.90;;;;;;5075882;28;19999;-80
2022/04/29 05:56:15;;;;;;;;;;;13.30;99.90;;;;;;5074979;28;19904;-81
2022/04/29 05:58:40;;;;;;;;;;;13.30;99.90;;;;;;5075569;28;19951;-79
2022/04/29 06:01:07;;;;;;;;;;;13.20;99.90;;;;;;5076059;28;19904;-78
2022/04/29 06:03:33;;;;;;;;;;;13.30;99.90;;;;;;5075909;28;20003;-80
2022/04/29 06:05:58;;;;;;;;;;;13.30;99.90;;;;;;5075699;28;19952;-80
2022/04/29 06:08:24;;;;;;;;;;;13.20;99.90;;;;;;5075643;28;19954;-81
2022/04/29 06:10:49;;;;;;;;;;;13.30;99.90;;;;;;5075646;28;19905;-80
2022/04/29 06:13:15;;;;;;;;;;;13.40;99.90;;;;;;5075571;28;20390;-79
2022/04/29 06:15:40;;;;;;;;;;;13.40;99.90;;;;;;5057501;28;19909;-81
2022/04/29 06:18:06;;;;;;;;;;;13.60;99.90;;;;;;5075377;28;19908;-79
2022/04/29 06:20:32;;;;;;;;;;;13.60;99.90;;;;;;5057507;28;20035;-81
2022/04/29 06:22:57;;;;;;;;;;;13.80;99.90;;;;;;5075375;28;19905;-78
2022/04/29 06:25:24;;;;;;;;;;;14.00;99.90;;;;;;5075440;28;19911;-79
2022/04/29 06:27:50;;;;;;;;;;;14.00;99.90;;;;;;5075348;28;20356;-78
2022/04/29 06:30:15;;;;;;;;;;;14.10;99.90;;;;;;5075169;28;19919;-81
2022/04/29 06:32:41;;;;;;;;;;;14.20;99.90;;;;;;5075317;28;19904;-80
2022/04/29 06:35:07;;;;;;;;;;;14.30;99.90;;;;;;5057160;28;19905;-80
2022/04/29 06:37:33;;;;;;;;;;;14.20;99.90;;;;;;5074825;28;19916;-81
2022/04/29 06:39:59;;;;;;;;;;;14.20;99.90;;;;;;5075066;28;20317;-78
2022/04/29 06:42:24;;;;;;;;;;;14.30;99.90;;;;;;5075016;28;19909;-80
2022/04/29 06:44:50;;;;;;;;;;;14.50;99.90;;;;;;5075308;28;19913;-81
2022/04/29 06:47:16;;;;;;;;;;;14.60;99.90;;;;;;5056887;28;20249;-79
2022/04/29 06:49:43;;;;;;;;;;;14.70;99.90;;;;;;5056935;28;20284;-80
2022/04/29 06:52:08;;;;;;;;;;;14.60;99.90;;;;;;5074854;28;19911;-81
2022/04/29 06:54:34;;;;;;;;;;;14.50;99.90;;;;;;5075201;28;19909;-78
2022/04/29 06:57:00;;;;;;;;;;;14.60;99.90;;;;;;5056658;28;20277;-80
2022/04/29 06:59:26;;;;;;;;;;;14.80;99.90;;;;;;5074716;28;20299;-82
2022/04/29 07:01:52;;;;;;;;;;;15.00;99.90;;;;;;5074585;28;20383;-79
2022/04/29 07:04:17;;;;;;;;;;;15.10;99.90;;;;;;5074526;28;19930;-80
2022/04/29 07:06:43;;;;;;;;;;;15.20;99.90;;;;;;5074486;28;19905;-81
2022/04/29 07:09:09;;;;;;;;;;;15.20;99.90;;;;;;5074434;28;19904;-80
2022/04/29 07:11:34;;;;;;;;;;;14.90;99.90;;;;;;5074191;28;19940;-78
2022/04/29 07:14:00;;;;;;;;;;;15.30;99.90;;;;;;5074306;28;19904;-81
2022/04/29 07:16:25;;;;;;;;;;;15.40;99.90;;;;;;5074142;28;20356;-82
2022/04/29 07:18:51;;;;;;;;;;;15.60;99.90;;;;;;5074227;28;20033;-82
2022/04/29 07:21:17;;;;;;;;;;;15.70;99.90;;;;;;5074693;28;19904;-83
2022/04/29 07:23:42;;;;;;;;;;;15.80;99.90;;;;;;5074271;28;19916;-81
2022/04/29 07:26:09;;;;;;;;;;;15.90;99.90;;;;;;5074035;28;20356;-82
2022/04/29 07:28:35;;;;;;;;;;;15.90;99.90;;;;;;5056325;28;19915;-81
2022/04/29 07:31:01;;;;;;;;;;;15.90;99.90;;;;;;5056066;28;19911;-81
2022/04/29 07:33:27;;;;;;;;;;;15.80;99.90;;;;;;5073947;28;19905;-82
2022/04/29 07:44:06;;;;;;;;;;;16.80;99.90;;;;;;5073973;28;19931;-81
2022/04/29 07:46:32;;;;;;;;;;;17.20;99.90;;;;;;5073962;28;20372;-81
2022/04/29 07:48:58;;;;;;;;;;;17.20;99.90;;;;;;5074086;28;20019;-81
2022/04/29 07:51:23;;;;;;;;;;;17.40;99.90;;;;;;5055905;28;19956;-82
2022/04/29 07:53:49;;;;;;;;;;;17.50;99.90;;;;;;5073789;28;19904;-79
2022/04/29 07:56:15;;;;;;;;;;;16.90;99.90;;;;;;5073840;28;19904;-82
2022/04/29 07:58:42;;;;;;;;;;;16.70;99.90;;;;;;5074448;28;19908;-82
2022/04/29 08:01:09;;;;;;;;;;;16.60;99.90;;;;;;5073811;28;19954;-81
2022/04/29 08:03:37;;;;;;;;;;;16.60;99.90;;;;;;5074046;28;20391;-80
2022/04/29 08:06:06;;;;;;;;;;;16.90;99.90;;;;;;5074247;28;19904;-79
2022/04/29 08:08:33;;;;;;;;;;;17.20;99.90;;;;;;5074034;28;20272;-82
2022/04/29 08:10:59;;;;;;;;;;;17.50;99.90;;;;;;5073575;28;19911;-81
2022/04/29 08:13:25;;;;;;;;;;;17.80;99.90;;;;;;5073658;28;19943;-80
2022/04/29 08:15:50;;;;;;;;;;;17.50;99.90;;;;;;5055615;28;20343;-78
2022/04/29 08:18:16;;;;;;;;;;;17.60;99.90;;;;;;5073607;28;20008;-82
2022/04/29 08:20:43;;;;;;;;;;;17.50;99.90;;;;;;5075725;28;19904;-81
2022/04/29 08:23:09;;;;;;;;;;;18.00;99.90;;;;;;5077953;28;19912;-81
2022/04/29 08:25:35;;;;;;;;;;;18.20;99.90;;;;;;5077556;28;19908;-79
2022/04/29 08:28:01;;;;;;;;;;;18.30;99.90;;;;;;5077572;28;19908;-79
2022/04/29 08:30:30;;;;;;;;;;;17.90;99.90;;;;;;5060032;28;19908;-81
2022/04/29 08:32:56;;;;;;;;;;;18.10;99.90;;;;;;5059522;28;20384;-81
2022/04/29 08:35:22;;;;;;;;;;;18.30;99.90;;;;;;5077597;28;19904;-79
2022/04/29 08:37:49;;;;;;;;;;;18.50;99.90;;;;;;5077085;28;19917;-81
2022/04/29 08:40:16;;;;;;;;;;;18.90;99.90;;;;;;5059395;28;19915;-84
2022/04/29 08:42:42;;;;;;;;;;;19.90;99.90;;;;;;5059231;28;19904;-80
2022/04/29 08:45:08;;;;;;;;;;;20.30;99.90;;;;;;5077199;28;19904;-78
2022/04/29 08:47:35;;;;;;;;;;;20.30;99.90;;;;;;5077193;28;19905;-81
2022/04/29 08:50:01;;;;;;;;;;;20.20;99.90;;;;;;5077656;28;19904;-80
2022/04/29 08:52:27;;;;;;;;;;;20.20;99.90;;;;;;5077094;28;20037;-80
2022/04/29 09:00:23;;;;;;;;;;;22.40;95.80;;;;;;5076966;28;19958;-77
2022/04/29 09:02:48;;;;;;;;;;;22.90;92.80;;;;;;5076827;28;19904;-76
2022/04/29 09:05:14;;;;;;;;;;;22.70;92.60;;;;;;5077047;28;20425;-79
2022/04/29 09:07:53;;;;;;;;;;;22.40;92.10;;;;;;5076899;28;19904;-79
2022/04/29 09:10:19;;;;;;;;;;;22.80;92.10;;;;;;5076720;28;19987;-78
2022/04/29 09:12:44;;;;;;;;;;;22.90;91.60;;;;;;5076760;28;19915;-76
2022/04/29 09:15:13;;;;;;;;;;;23.50;91.00;;;;;;5077060;28;19942;-79
2022/04/29 09:17:43;;;;;;;;;;;23.40;87.50;;;;;;5058666;28;20288;-80
2022/04/29 09:20:16;;;;;;;;;;;22.70;88.10;;;;;;5077310;28;19904;-80
2022/04/29 09:22:52;;;;;;;;;;;22.20;90.40;;;;;;5076684;28;19905;-77
2022/04/29 09:25:18;;;;;;;;;;;22.60;90.50;;;;;;5076589;28;19927;-79
2022/04/29 09:27:53;;;;;;;;;;;23.50;90.10;;;;;;5076696;28;20365;-77
2022/04/29 09:30:34;;;;;;;;;;;26.10;74.00;;;;;;5076827;28;19931;-78
2022/04/29 09:33:00;;;;;;;;;;;28.70;69.00;;;;;;5058515;28;19905;-77
2022/04/29 09:35:39;;;;;;;;;;;29.80;60.30;;;;;;5076660;28;19904;-80
2022/04/29 09:40:49;;;;;;;;;;;32.10;54.10;;;;;;5077252;28;19910;-81
2022/04/29 09:43:16;;;;;;;;;;;32.60;52.80;;;;;;5076928;28;19920;-80
2022/04/29 09:45:41;;;;;;;;;;;33.90;49.10;;;;;;5076699;28;19911;-79
2022/04/29 09:48:10;;;;;;;;;;;32.20;49.50;;;;;;5077109;28;20322;-81
2022/04/29 09:50:46;;;;;;;;;;;29.90;51.30;;;;;;5076609;28;19987;-80
2022/04/29 09:53:23;;;;;;;;;;;32.80;50.60;;;;;;5076413;28;19995;-81
2022/04/29 09:56:09;;;;;;;;;;;35.70;47.10;;;;;;5057707;28;19904;-81
2022/04/29 09:58:35;;;;;;;;;;;36.70;44.20;;;;;;5075784;28;19916;-80
2022/04/29 10:01:02;;;;;;;;;;;37.40;42.60;;;;;;5075803;28;20395;-80
2022/04/29 10:03:28;;;;;;;;;;;39.00;41.10;;;;;;5057817;28;19909;-81
2022/04/29 10:05:55;;;;;;;;;;;39.50;39.90;;;;;;5075728;28;19904;-80
2022/04/29 10:08:24;;;;;;;;;;;39.20;39.00;;;;;;5075896;28;19905;-81
2022/04/29 10:10:50;;;;;;;;;;;38.80;39.80;;;;;;5075986;28;19904;-80
2022/04/29 10:13:18;;;;;;;;;;;38.50;39.60;;;;;;5075578;28;19904;-78
2022/04/29 10:15:44;;;;;;;;;;;39.50;39.30;;;;;;5075535;28;20365;-78
2022/04/29 10:23:39;;;;;;;;;;;37.50;39.80;;;;;;5075140;28;20430;-79
2022/04/29 10:26:04;;;;;;;;;;;38.10;39.50;;;;;;5075866;28;19943;-80
2022/04/29 10:28:31;;;;;;;;;;;38.90;38.50;;;;;;5075292;28;19958;-79
2022/04/29 10:31:06;;;;;;;;;;;40.20;38.30;;;;;;5075229;28;19927;-80
2022/04/29 10:33:32;;;;;;;;;;;41.20;37.60;;;;;;5057168;28;19904;-80
2022/04/29 10:36:08;;;;;;;;;;;42.50;37.10;;;;;;5075163;28;20389;-79
2022/04/29 10:38:35;;;;;;;;;;;41.80;35.90;;;;;;5074681;28;20358;-78
2022/04/29 10:41:06;;;;;;;;;;;41.40;36.80;;;;;;5075184;28;19915;-79
2022/04/29 10:43:32;;;;;;;;;;;42.00;36.20;;;;;;5056448;28;20369;-78
2022/04/29 10:46:04;;;;;;;;;;;41.80;35.60;;;;;;5074923;28;19905;-79
2022/04/29 10:48:30;;;;;;;;;;;41.60;36.60;;;;;;5075152;28;19911;-78
2022/04/29 10:50:56;;;;;;;;;;;42.40;36.10;;;;;;5074869;28;19911;-79
2022/04/29 10:53:34;;;;;;;;;;;42.90;35.30;;;;;;5074972;28;19904;-79
2022/04/29 10:56:19;;;;;;;;;;;42.20;36.00;;;;;;5074797;28;19904;-79
2022/04/29 10:58:45;;;;;;;;;;;43.00;36.00;;;;;;5074616;28;19912;-79
2022/04/29 11:01:14;;;;;;;;;;;42.60;35.80;;;;;;5074800;28;19904;-79
2022/04/29 11:03:41;;;;;;;;;;;42.10;35.80;;;;;;5062543;28;19912;-78
2022/04/29 11:06:14;;;;;;;;;;;41.50;36.00;;;;;;5043315;28;19916;-79
2022/04/29 11:08:40;;;;;;;;;;;39.70;36.60;;;;;;5065141;28;19908;-80
2022/04/29 11:11:05;;;;;;;;;;;38.90;37.90;;;;;;5065057;28;19912;-81
2022/04/29 11:13:34;;;;;;;;;;;39.40;37.20;;;;;;5065028;28;19904;-80
2022/04/29 11:16:13;;;;;;;;;;;39.40;38.30;;;;;;5064654;28;19954;-80
2022/04/29 11:18:41;;;;;;;;;;;40.30;37.10;;;;;;5067646;28;20005;-80
2022/04/29 11:26:46;;;;;;;;;;;40.40;37.20;;;;;;5062815;28;20006;-79
2022/04/29 11:29:12;;;;;;;;;;;41.60;36.60;;;;;;5065308;28;20008;-80
2022/04/29 11:31:38;;;;;;;;;;;41.90;35.60;;;;;;5067432;28;19905;-79
2022/04/29 11:34:05;;;;;;;;;;;41.60;35.50;;;;;;5063335;28;20368;-81
2022/04/29 11:36:30;;;;;;;;;;;42.90;35.90;;;;;;5036465;28;19964;-78
2022/04/29 11:38:56;;;;;;;;;;;42.80;35.70;;;;;;5054282;28;20045;-79
2022/04/29 11:41:24;;;;;;;;;;;43.30;34.80;;;;;;5053997;28;19905;-78
2022/04/29 11:43:50;;;;;;;;;;;42.60;34.30;;;;;;5054248;28;20283;-78
2022/04/29 11:46:16;;;;;;;;;;;42.40;35.00;;;;;;5053923;28;20277;-77
2022/04/29 11:48:53;;;;;;;;;;;43.60;35.20;;;;;;5035907;28;19909;-79
2022/04/29 11:51:18;;;;;;;;;;;43.50;34.50;;;;;;5035974;28;19905;-79
2022/04/29 11:53:53;;;;;;;;;;;43.10;34.70;;;;;;5053670;28;19904;-76
2022/04/29 11:56:18;;;;;;;;;;;44.30;34.20;;;;;;5035312;28;20384;-80
2022/04/29 11:58:44;;;;;;;;;;;44.30;34.20;;;;;;5053687;28;19908;-79
2022/04/29 12:01:10;;;;;;;;;;;44.90;33.50;;;;;;5053892;28;19905;-78
2022/04/29 12:03:36;;;;;;;;;;;45.90;32.90;;;;;;5053600;28;19984;-78
2022/04/29 12:06:04;;;;;;;;;;;46.60;32.60;;;;;;5053661;28;19912;-79
2022/04/29 12:08:39;;;;;;;;;;;47.70;32.60;;;;;;5053498;28;20357;-79
2022/04/29 12:11:05;;;;;;;;;;;47.40;32.60;;;;;;5053583;28;19909;-79
2022/04/29 12:13:30;;;;;;;;;;;47.20;32.10;;;;;;5053625;28;19904;-77
2022/04/29 12:15:56;;;;;;;;;;;46.10;31.90;;;;;;5053577;28;19995;-78
2022/04/29 12:18:36;;;;;;;;;;;46.80;32.80;;;;;;5053578;28;19905;-79
2022/04/29 12:21:02;;;;;;;;;;;46.30;31.70;;;;;;5053760;28;19905;-79
2022/04/29 12:23:31;;;;;;;;;;;46.80;32.60;;;;;;5053462;28;19919;-79
2022/04/29 12:25:58;;;;;;;;;;;47.60;32.00;;;;;;5053204;28;19971;-80
2022/04/29 12:28:27;;;;;;;;;;;48.00;31.70;;;;;;5053326;28;19935;-79
2022/04/29 12:36:52;;;;;;;;;;;47.70;31.50;;;;;;5053241;28;19927;-77
2022/04/29 12:39:22;;;;;;;;;;;49.50;31.20;;;;;;5035316;28;19909;-78
2022/04/29 12:42:17;;;;;;;;;;;49.50;30.80;;;;;;5035396;28;19905;-77
2022/04/29 12:45:04;;;;;;;;;;;48.00;31.00;;;;;;5032146;28;19988;-77
2022/04/29 12:47:38;;;;;;;;;;;47.00;31.30;;;;;;5053281;28;19905;-77
2022/04/29 12:50:16;;;;;;;;;;;47.00;31.40;;;;;;5053250;28;19904;-78
2022/04/29 12:52:50;;;;;;;;;;;45.60;32.20;;;;;;5053219;28;19912;-78
2022/04/29 12:55:16;;;;;;;;;;;45.30;32.10;;;;;;5053104;28;19905;-77
2022/04/29 12:57:41;;;;;;;;;;;45.50;32.10;;;;;;5053119;28;19912;-77
2022/04/29 13:00:08;;;;;;;;;;;46.30;31.70;;;;;;5053077;28;19920;-77
2022/04/29 13:02:34;;;;;;;;;;;46.60;31.60;;;;;;5053100;28;19905;-78
2022/04/29 13:04:59;;;;;;;;;;;46.60;30.60;;;;;;5053010;28;19912;-78
2022/04/29 13:07:25;;;;;;;;;;;44.60;31.40;;;;;;5056132;28;19916;-77
2022/04/29 13:09:51;;;;;;;;;;;44.40;31.80;;;;;;5056832;28;19984;-79
2022/04/29 13:12:18;;;;;;;;;;;45.20;31.60;;;;;;5038726;28;19943;-77
2022/04/29 13:14:43;;;;;;;;;;;44.80;31.30;;;;;;5056665;28;19979;-78
2022/04/29 13:17:09;;;;;;;;;;;43.70;31.90;;;;;;5056675;28;19943;-78
2022/04/29 13:19:37;;;;;;;;;;;43.10;32.10;;;;;;5056608;28;20319;-78
2022/04/29 13:22:02;;;;;;;;;;;43.80;31.70;;;;;;5056599;28;20280;-78
2022/04/29 13:24:28;;;;;;;;;;;44.00;32.00;;;;;;5056908;28;19904;-78
2022/04/29 13:26:54;;;;;;;;;;;44.10;31.60;;;;;;5056493;28;19952;-78
2022/04/29 13:29:19;;;;;;;;;;;43.40;32.50;;;;;;5056234;28;20356;-77
2022/04/29 13:31:45;;;;;;;;;;;43.60;32.10;;;;;;5056393;28;19916;-79
2022/04/29 13:34:11;;;;;;;;;;;43.60;32.00;;;;;;5056632;28;20022;-76
2022/04/29 13:36:37;;;;;;;;;;;43.00;32.10;;;;;;5056068;28;19952;-77
2022/04/29 13:39:02;;;;;;;;;;;42.20;32.30;;;;;;5056250;28;19905;-77
2022/04/29 13:41:28;;;;;;;;;;;41.60;33.10;;;;;;5056419;28;19905;-77
2022/04/29 13:43:53;;;;;;;;;;;40.90;33.00;;;;;;5056262;28;19988;-77
2022/04/29 13:46:19;;;;;;;;;;;39.40;33.70;;;;;;5056136;28;19959;-77
2022/04/29 13:48:45;;;;;;;;;;;39.70;34.60;;;;;;5056358;28;20015;-76
2022/04/29 13:51:10;;;;;;;;;;;39.10;34.70;;;;;;5055974;28;19954;-76
2022/04/29 13:53:38;;;;;;;;;;;39.10;35.00;;;;;;5055952;28;20413;-77
2022/04/29 13:56:04;;;;;;;;;;;38.90;34.90;;;;;;5055941;28;19947;-79
2022/04/29 13:58:29;;;;;;;;;;;38.80;34.10;;;;;;5056451;28;19905;-79
2022/04/29 14:00:55;;;;;;;;;;;38.50;35.20;;;;;;5055821;28;19954;-79
2022/04/29 14:03:22;;;;;;;;;;;37.20;35.80;;;;;;5055832;28;19904;-79
2022/04/29 14:05:47;;;;;;;;;;;36.90;36.30;;;;;;5055706;28;20003;-77
2022/04/29 14:08:13;;;;;;;;;;;35.60;37.30;;;;;;5055618;28;20000;-79
2022/04/29 14:10:39;;;;;;;;;;;35.80;37.30;;;;;;5055551;28;19959;-79
2022/04/29 14:13:05;;;;;;;;;;;35.80;36.70;;;;;;5055801;28;19909;-80
2022/04/29 14:15:31;;;;;;;;;;;35.90;37.10;;;;;;5055548;28;20285;-77
2022/04/29 14:17:56;;;;;;;;;;;35.70;37.40;;;;;;5054537;28;19905;-79
2022/04/29 14:20:23;;;;;;;;;;;35.70;37.80;;;;;;5055667;28;19963;-79
2022/04/29 14:22:49;;;;;;;;;;;35.90;38.10;;;;;;5055517;28;19994;-78
2022/04/29 14:25:15;;;;;;;;;;;36.00;37.90;;;;;;5055382;28;19909;-79
2022/04/29 14:27:41;;;;;;;;;;;36.20;37.50;;;;;;5055235;28;19991;-79
2022/04/29 14:30:07;;;;;;;;;;;35.60;37.80;;;;;;5055280;28;20252;-77
2022/04/29 14:32:33;;;;;;;;;;;35.20;38.70;;;;;;5055246;28;19905;-79
2022/04/29 14:35:00;;;;;;;;;;;36.00;38.00;;;;;;5055448;28;20353;-77
2022/04/29 14:37:32;;;;;;;;;;;35.50;38.00;;;;;;5033744;28;19924;-79
2022/04/29 14:39:59;;;;;;;;;;;34.50;39.40;;;;;;5035412;28;19905;-79
2022/04/29 14:42:25;;;;;;;;;;;34.80;38.90;;;;;;5035089;28;19905;-78
2022/04/29 14:44:50;;;;;;;;;;;34.60;39.30;;;;;;5035058;28;19905;-77
2022/04/29 14:47:16;;;;;;;;;;;34.40;39.50;;;;;;5035490;28;19905;-78
2022/04/29 14:49:42;;;;;;;;;;;33.50;39.50;;;;;;5034914;28;20008;-80
2022/04/29 14:52:08;;;;;;;;;;;33.30;40.00;;;;;;5034857;28;19932;-79
2022/04/29 14:54:34;;;;;;;;;;;33.90;40.20;;;;;;5033580;28;20377;-79
2022/04/29 14:57:00;;;;;;;;;;;34.30;39.80;;;;;;5035404;28;19909;-79